createdAt,value
2019-02-17T00:00:41.738Z,4.78
2019-02-17T00:03:10.357Z,4.81
2019-02-17T00:05:38.980Z,4.79
2019-02-17T00:08:08.309Z,4.80
2019-02-17T00:10:36.912Z,4.82
2019-02-17T00:13:05.595Z,4.74
2019-02-17T00:15:34.204Z,4.68
2019-02-17T00:18:02.779Z,4.68
2019-02-17T00:20:31.285Z,4.63
2019-02-17T00:22:59.907Z,4.61
2019-02-17T00:25:28.500Z,4.66
2019-02-17T00:27:57.126Z,4.67
2019-02-17T00:30:25.722Z,4.68
2019-02-17T00:32:54.225Z,4.74
2019-02-17T00:35:22.816Z,4.79
2019-02-17T00:37:51.402Z,4.84
2019-02-17T00:40:20.862Z,4.92
2019-02-17T00:42:49.518Z,5.01
2019-02-17T00:45:18.078Z,4.96
2019-02-17T00:47:46.677Z,4.89
2019-02-17T00:50:15.294Z,4.84
2019-02-17T00:52:43.812Z,4.88
2019-02-17T00:55:12.370Z,4.86
2019-02-17T00:57:40.879Z,4.91
2019-02-17T01:00:12.258Z,5.05
2019-02-17T01:02:40.861Z,4.97
2019-02-17T01:05:09.570Z,4.89
2019-02-17T01:07:38.244Z,4.80
2019-02-17T01:10:08.138Z,4.77
2019-02-17T01:12:36.697Z,4.78
2019-02-17T01:15:08.815Z,4.70
2019-02-17T01:17:37.451Z,4.65
2019-02-17T01:20:08.474Z,4.69
2019-02-17T01:22:37.215Z,4.77
2019-02-17T01:25:08.480Z,4.83
2019-02-17T01:27:37.045Z,4.82
2019-02-17T01:30:08.796Z,4.85
2019-02-17T01:32:37.417Z,4.90
2019-02-17T01:35:06.354Z,4.92
2019-02-17T01:37:34.867Z,4.85
2019-02-17T01:40:03.885Z,4.81
2019-02-17T01:42:32.490Z,4.72
2019-02-17T01:45:01.051Z,4.57
2019-02-17T01:47:29.634Z,4.47
2019-02-17T01:49:58.294Z,4.44
2019-02-17T01:52:26.881Z,4.41
2019-02-17T01:54:55.396Z,4.46
2019-02-17T01:57:24.056Z,4.47
2019-02-17T01:59:52.683Z,4.42
2019-02-17T02:02:21.213Z,4.40
2019-02-17T02:04:49.800Z,4.38
2019-02-17T02:07:18.358Z,4.34
2019-02-17T02:09:47.061Z,4.36
2019-02-17T02:12:15.646Z,4.37
2019-02-17T02:14:44.273Z,4.30
2019-02-17T02:17:12.898Z,4.30
2019-02-17T02:19:41.577Z,4.36
2019-02-17T02:22:10.203Z,4.37
2019-02-17T02:24:38.740Z,4.36
2019-02-17T02:27:07.332Z,4.40
2019-02-17T02:29:40.978Z,4.39
2019-02-17T02:32:06.225Z,4.30
2019-02-17T02:34:34.820Z,4.33
2019-02-17T02:37:03.374Z,4.34
2019-02-17T02:39:31.934Z,4.27
2019-02-17T02:42:00.412Z,4.29
2019-02-17T02:44:28.943Z,4.25
2019-02-17T02:46:57.540Z,4.19
2019-02-17T02:49:26.160Z,4.17
2019-02-17T02:51:54.787Z,4.19
2019-02-17T02:54:23.376Z,4.25
2019-02-17T02:56:51.907Z,4.31
2019-02-17T02:59:20.517Z,4.26
2019-02-17T03:01:49.133Z,4.19
2019-02-17T03:04:17.848Z,4.14
2019-02-17T03:06:50.931Z,4.18
2019-02-17T03:09:19.544Z,4.25
2019-02-17T03:11:48.071Z,4.23
2019-02-17T03:14:16.624Z,4.19
2019-02-17T03:16:45.132Z,4.13
2019-02-17T03:19:13.743Z,4.16
2019-02-17T03:21:42.434Z,4.13
2019-02-17T03:24:10.947Z,4.04
2019-02-17T03:26:39.484Z,4.08
2019-02-17T03:29:08.144Z,4.08
2019-02-17T03:31:36.824Z,4.06
2019-02-17T03:34:05.456Z,4.12
2019-02-17T03:36:34.012Z,4.20
2019-02-17T03:39:02.526Z,4.08
2019-02-17T03:41:31.060Z,4.08
2019-02-17T03:43:59.491Z,4.08
2019-02-17T03:46:28.014Z,4.03
2019-02-17T03:48:56.646Z,3.98
2019-02-17T03:51:25.149Z,3.90
2019-02-17T03:53:53.688Z,3.86
2019-02-17T03:56:22.266Z,3.88
2019-02-17T03:58:50.745Z,3.85
2019-02-17T04:01:19.280Z,3.95
2019-02-17T04:03:47.836Z,3.96
2019-02-17T04:06:16.482Z,3.91
2019-02-17T04:08:45.035Z,3.93
2019-02-17T04:11:13.507Z,3.93
2019-02-17T04:13:42.058Z,3.90
2019-02-17T04:16:10.551Z,3.83
2019-02-17T04:18:39.191Z,3.85
2019-02-17T04:21:07.812Z,3.91
2019-02-17T04:23:36.312Z,3.97
2019-02-17T04:26:04.920Z,3.93
2019-02-17T04:28:33.466Z,3.79
2019-02-17T04:31:02.050Z,3.79
2019-02-17T04:33:30.714Z,3.84
2019-02-17T04:35:59.299Z,3.88
2019-02-17T04:38:27.863Z,3.77
2019-02-17T04:40:56.483Z,3.79
2019-02-17T04:43:25.073Z,3.78
2019-02-17T04:45:53.580Z,3.76
2019-02-17T04:48:22.196Z,3.68
2019-02-17T04:50:50.709Z,3.65
2019-02-17T04:53:19.340Z,3.64
2019-02-17T04:55:47.930Z,3.62
2019-02-17T04:58:16.571Z,3.61
2019-02-17T05:00:45.170Z,3.66
2019-02-17T05:03:13.766Z,3.65
2019-02-17T05:05:42.397Z,3.65
2019-02-17T05:08:10.908Z,3.63
2019-02-17T05:10:39.421Z,3.63
2019-02-17T05:13:08.016Z,3.58
2019-02-17T05:15:36.514Z,3.61
2019-02-17T05:18:05.136Z,3.63
2019-02-17T05:20:33.648Z,3.56
2019-02-17T05:23:02.203Z,3.51
2019-02-17T05:25:30.822Z,3.45
2019-02-17T05:27:59.396Z,3.49
2019-02-17T05:30:28.151Z,3.53
2019-02-17T05:32:56.581Z,3.45
2019-02-17T05:35:25.074Z,3.42
2019-02-17T05:37:53.532Z,3.59
2019-02-17T05:40:22.114Z,3.70
2019-02-17T05:42:52.875Z,3.62
2019-02-17T05:45:21.654Z,3.54
2019-02-17T05:47:50.167Z,3.47
2019-02-17T05:50:18.687Z,3.48
2019-02-17T05:52:47.236Z,3.35
2019-02-17T05:55:15.840Z,3.29
2019-02-17T05:57:44.372Z,3.33
2019-02-17T06:00:14.049Z,3.30
2019-02-17T06:02:42.549Z,3.30
2019-02-17T06:05:11.096Z,3.34
2019-02-17T06:07:39.681Z,3.29
2019-02-17T06:10:09.812Z,3.26
2019-02-17T06:12:38.365Z,3.23
2019-02-17T06:15:07.343Z,3.33
2019-02-17T06:17:36.592Z,3.38
2019-02-17T06:20:08.387Z,3.40
2019-02-17T06:22:36.930Z,3.45
2019-02-17T06:25:05.842Z,3.49
2019-02-17T06:27:34.422Z,3.45
2019-02-17T06:30:03.081Z,3.56
2019-02-17T06:32:31.706Z,3.66
2019-02-17T06:35:00.330Z,3.65
2019-02-17T06:37:28.978Z,3.58
2019-02-17T06:39:57.491Z,3.49
2019-02-17T06:42:26.055Z,3.41
2019-02-17T06:44:56.188Z,3.38
2019-02-17T06:47:26.383Z,3.49
2019-02-17T06:49:54.958Z,3.53
2019-02-17T06:52:23.428Z,3.61
2019-02-17T06:54:53.519Z,3.55
2019-02-17T06:57:23.819Z,3.66
2019-02-17T06:59:53.896Z,3.76
2019-02-17T07:02:22.581Z,3.72
2019-02-17T07:05:08.892Z,3.74
2019-02-17T07:07:37.406Z,3.86
2019-02-17T07:10:06.485Z,3.85
2019-02-17T07:12:34.921Z,3.94
2019-02-17T07:15:04.050Z,3.99
2019-02-17T07:17:32.565Z,4.04
2019-02-17T07:20:01.047Z,3.77
2019-02-17T07:22:29.561Z,3.52
2019-02-17T07:24:58.175Z,3.48
2019-02-17T07:27:26.613Z,3.42
2019-02-17T07:29:55.174Z,3.26
2019-02-17T07:32:23.722Z,3.12
2019-02-17T07:34:52.290Z,3.01
2019-02-17T07:37:20.909Z,3.08
2019-02-17T07:39:49.478Z,3.37
2019-02-17T07:42:18.369Z,3.74
2019-02-17T07:44:46.811Z,4.17
2019-02-17T07:47:15.422Z,4.48
2019-02-17T07:49:43.968Z,4.74
2019-02-17T07:52:12.579Z,5.12
2019-02-17T07:54:41.120Z,5.17
2019-02-17T07:57:09.655Z,4.97
2019-02-17T07:59:38.213Z,4.85
2019-02-17T08:02:06.811Z,4.52
2019-02-17T08:04:35.375Z,4.43
2019-02-17T08:07:03.951Z,4.90
2019-02-17T08:09:32.577Z,5.38
2019-02-17T08:12:02.650Z,5.89
2019-02-17T08:14:31.179Z,6.33
2019-02-17T08:16:59.739Z,6.69
2019-02-17T08:19:28.335Z,7.03
2019-02-17T08:21:56.882Z,7.38
2019-02-17T08:24:25.524Z,7.74
2019-02-17T08:26:54.074Z,8.31
2019-02-17T08:29:22.596Z,8.57
2019-02-17T08:31:55.838Z,8.63
2019-02-17T08:34:21.543Z,8.68
2019-02-17T08:36:50.044Z,8.73
2019-02-17T08:39:18.610Z,8.95
2019-02-17T08:41:47.235Z,9.04
2019-02-17T08:44:15.837Z,9.08
2019-02-17T08:46:45.119Z,9.18
2019-02-17T08:49:13.849Z,9.52
2019-02-17T08:51:42.474Z,10.02
2019-02-17T08:54:11.030Z,10.48
2019-02-17T08:56:39.543Z,10.72
2019-02-17T08:59:08.004Z,11.02
2019-02-17T09:01:36.646Z,11.36
2019-02-17T09:04:05.252Z,11.46
2019-02-17T09:06:33.838Z,11.46
2019-02-17T09:09:02.530Z,11.48
2019-02-17T09:11:31.100Z,11.37
2019-02-17T09:13:59.750Z,11.35
2019-02-17T09:16:28.409Z,11.39
2019-02-17T09:18:57.005Z,11.51
2019-02-17T09:21:25.580Z,11.67
2019-02-17T09:23:55.010Z,11.84
2019-02-17T09:26:23.610Z,11.93
2019-02-17T09:28:52.154Z,12.08
2019-02-17T09:31:20.790Z,12.08
2019-02-17T09:33:49.383Z,12.11
2019-02-17T09:36:17.945Z,12.33
2019-02-17T09:38:46.584Z,12.51
2019-02-17T09:41:15.196Z,12.54
2019-02-17T09:43:45.590Z,12.55
2019-02-17T09:46:14.035Z,12.62
2019-02-17T09:48:42.653Z,12.61
2019-02-17T09:51:11.273Z,12.59
2019-02-17T09:53:39.876Z,12.74
2019-02-17T09:56:08.401Z,12.84
2019-02-17T09:58:36.976Z,12.94
2019-02-17T10:01:05.546Z,13.02
2019-02-17T10:03:34.074Z,13.16
2019-02-17T10:06:02.680Z,13.35
2019-02-17T10:08:31.236Z,13.44
2019-02-17T10:10:59.790Z,13.54
2019-02-17T10:13:28.298Z,13.57
2019-02-17T10:15:56.870Z,13.87
2019-02-17T10:18:25.392Z,14.08
2019-02-17T10:20:53.941Z,14.25
2019-02-17T10:23:22.474Z,14.38
2019-02-17T10:25:51.109Z,14.46
2019-02-17T10:28:19.747Z,14.51
2019-02-17T10:30:48.340Z,14.48
2019-02-17T10:33:16.956Z,14.43
2019-02-17T10:35:45.587Z,14.50
2019-02-17T10:38:14.769Z,14.59
2019-02-17T10:40:43.339Z,14.70
2019-02-17T10:43:11.927Z,14.80
2019-02-17T10:45:41.531Z,14.82
2019-02-17T10:48:10.170Z,14.89
2019-02-17T10:50:38.794Z,14.90
2019-02-17T10:53:07.354Z,15.03
2019-02-17T10:55:35.939Z,15.12
2019-02-17T10:58:04.600Z,15.25
2019-02-17T11:00:33.211Z,15.34
2019-02-17T11:03:07.136Z,15.54
2019-02-17T11:05:35.810Z,15.76
2019-02-17T11:08:04.436Z,15.88
2019-02-17T11:10:33.023Z,16.02
2019-02-17T11:13:01.501Z,16.11
2019-02-17T11:15:30.209Z,16.27
2019-02-17T11:17:58.797Z,16.43
2019-02-17T11:20:30.105Z,16.65
2019-02-17T11:22:58.736Z,16.54
2019-02-17T11:25:27.355Z,16.76
2019-02-17T11:27:55.970Z,16.81
2019-02-17T11:30:24.614Z,16.87
2019-02-17T11:32:57.996Z,16.97
2019-02-17T11:35:23.402Z,17.09
2019-02-17T11:37:53.503Z,17.15
2019-02-17T11:40:22.084Z,17.17
2019-02-17T11:42:50.710Z,17.20
2019-02-17T11:45:20.184Z,17.29
2019-02-17T11:47:50.282Z,17.30
2019-02-17T11:50:18.969Z,17.18
2019-02-17T11:52:47.620Z,17.20
2019-02-17T11:55:16.614Z,17.33
2019-02-17T11:57:45.235Z,17.38
2019-02-17T12:00:19.206Z,17.44
2019-02-17T12:02:48.047Z,17.62
2019-02-17T12:05:16.682Z,17.79
2019-02-17T12:07:45.284Z,17.82
2019-02-17T12:10:13.869Z,17.95
2019-02-17T12:12:42.475Z,17.92
2019-02-17T12:15:13.439Z,17.86
2019-02-17T12:17:41.990Z,17.79
2019-02-17T12:20:32.477Z,17.87
2019-02-17T12:23:02.744Z,17.92
2019-02-17T12:25:33.024Z,17.87
2019-02-17T12:28:06.058Z,17.75
2019-02-17T12:30:34.757Z,17.72
2019-02-17T12:33:03.283Z,17.68
2019-02-17T12:35:31.931Z,17.79
2019-02-17T12:38:00.525Z,17.88
2019-02-17T12:40:29.118Z,18.01
2019-02-17T12:42:57.770Z,18.17
2019-02-17T12:45:26.337Z,18.25
2019-02-17T12:47:58.274Z,18.15
2019-02-17T12:50:25.266Z,18.31
2019-02-17T12:52:53.917Z,18.44
2019-02-17T12:55:22.483Z,18.41
2019-02-17T12:57:51.027Z,18.39
2019-02-17T13:00:19.675Z,18.39
2019-02-17T13:02:48.363Z,18.45
2019-02-17T13:05:17.014Z,18.48
2019-02-17T13:07:45.624Z,18.35
2019-02-17T13:10:14.340Z,18.28
2019-02-17T13:12:42.983Z,18.09
2019-02-17T13:15:14.461Z,17.91
2019-02-17T13:17:43.109Z,17.90
2019-02-17T13:20:15.878Z,17.69
2019-02-17T13:22:44.523Z,17.55
2019-02-17T13:25:15.104Z,17.47
2019-02-17T13:27:43.767Z,17.45
2019-02-17T13:30:20.860Z,17.50
2019-02-17T13:32:49.517Z,17.46
2019-02-17T13:35:18.065Z,17.37
2019-02-17T13:37:46.724Z,17.12
2019-02-17T13:40:15.325Z,17.12
2019-02-17T13:42:43.928Z,16.98
2019-02-17T13:45:16.823Z,16.96
2019-02-17T13:47:45.560Z,17.04
2019-02-17T13:50:16.099Z,17.14
2019-02-17T13:52:44.934Z,17.14
2019-02-17T13:55:13.588Z,17.23
2019-02-17T13:57:42.111Z,17.23
2019-02-17T14:00:14.457Z,17.34
2019-02-17T14:02:43.106Z,17.30
2019-02-17T14:05:12.034Z,17.39
2019-02-17T14:07:40.574Z,17.41
2019-02-17T14:10:11.194Z,17.42
2019-02-17T14:12:39.803Z,17.37
2019-02-17T14:15:19.100Z,17.37
2019-02-17T14:17:47.766Z,17.37
2019-02-17T14:20:16.416Z,17.50
2019-02-17T14:22:44.944Z,17.54
2019-02-17T14:25:13.702Z,17.57
2019-02-17T14:27:42.332Z,17.65
2019-02-17T14:30:15.423Z,17.71
2019-02-17T14:32:44.067Z,17.75
2019-02-17T14:35:12.680Z,17.66
2019-02-17T14:37:41.230Z,17.58
2019-02-17T14:40:12.573Z,17.56
2019-02-17T14:42:41.224Z,17.48
2019-02-17T14:45:11.987Z,17.39
2019-02-17T14:47:40.708Z,17.53
2019-02-17T14:50:09.544Z,17.76
2019-02-17T14:52:38.098Z,17.84
2019-02-17T14:55:11.720Z,17.72
2019-02-17T14:57:40.439Z,17.55
2019-02-17T15:00:18.042Z,17.52
2019-02-17T15:02:46.651Z,17.56
2019-02-17T15:05:15.295Z,17.50
2019-02-17T15:07:43.942Z,17.33
2019-02-17T15:10:13.915Z,17.39
2019-02-17T15:12:42.566Z,17.33
2019-02-17T15:15:12.734Z,17.27
2019-02-17T15:17:41.366Z,17.21
2019-02-17T15:20:12.647Z,17.23
2019-02-17T15:22:41.300Z,17.32
2019-02-17T15:25:11.533Z,17.22
2019-02-17T15:27:40.145Z,17.22
2019-02-17T15:30:11.881Z,17.32
2019-02-17T15:32:40.415Z,17.39
2019-02-17T15:35:09.073Z,17.47
2019-02-17T15:37:37.718Z,17.42
2019-02-17T15:40:09.528Z,17.45
2019-02-17T15:42:38.175Z,17.51
2019-02-17T15:45:09.675Z,17.55
2019-02-17T15:47:38.319Z,17.53
2019-02-17T15:50:09.311Z,17.52
2019-02-17T15:52:37.940Z,17.52
2019-02-17T15:55:09.761Z,17.50
2019-02-17T15:57:38.406Z,17.48
2019-02-17T16:00:12.738Z,17.41
2019-02-17T16:02:41.856Z,17.32
2019-02-17T16:05:10.763Z,17.25
2019-02-17T16:07:39.371Z,17.18
2019-02-17T16:10:10.955Z,17.10
2019-02-17T16:12:39.546Z,17.02
2019-02-17T16:15:11.568Z,16.95
2019-02-17T16:17:40.168Z,16.81
2019-02-17T16:20:11.780Z,16.72
2019-02-17T16:22:40.384Z,16.67
2019-02-17T16:25:10.006Z,16.60
2019-02-17T16:27:38.597Z,16.45
2019-02-17T16:30:10.119Z,16.19
2019-02-17T16:32:41.605Z,15.95
2019-02-17T16:35:10.604Z,15.77
2019-02-17T16:37:39.295Z,15.64
2019-02-17T16:40:10.865Z,15.56
2019-02-17T16:42:39.465Z,15.48
2019-02-17T16:45:10.780Z,15.35
2019-02-17T16:47:39.402Z,15.16
2019-02-17T16:50:11.348Z,14.99
2019-02-17T16:52:40.048Z,14.76
2019-02-17T16:55:10.398Z,14.53
2019-02-17T16:57:39.038Z,14.34
2019-02-17T17:00:10.695Z,14.15
2019-02-17T17:02:39.324Z,13.94
2019-02-17T17:05:10.409Z,13.72
2019-02-17T17:07:39.053Z,13.57
2019-02-17T17:10:07.724Z,13.43
2019-02-17T17:12:36.132Z,13.26
2019-02-17T17:15:06.054Z,13.17
2019-02-17T17:17:34.620Z,13.08
2019-02-17T17:20:03.670Z,13.01
2019-02-17T17:22:32.252Z,12.87
2019-02-17T17:25:00.891Z,12.77
2019-02-17T17:27:29.412Z,12.64
2019-02-17T17:29:57.968Z,12.54
2019-02-17T17:32:26.562Z,12.31
2019-02-17T17:34:58.816Z,12.31
2019-02-17T17:37:26.162Z,12.26
2019-02-17T17:39:54.654Z,12.12
2019-02-17T17:42:23.298Z,11.97
2019-02-17T17:44:51.895Z,11.94
2019-02-17T17:47:20.483Z,11.83
2019-02-17T17:49:49.119Z,11.73
2019-02-17T17:52:17.685Z,11.65
2019-02-17T17:54:46.297Z,11.61
2019-02-17T17:57:14.909Z,11.55
2019-02-17T17:59:43.569Z,11.48
2019-02-17T18:02:12.108Z,11.48
2019-02-17T18:04:43.441Z,11.41
2019-02-17T18:07:13.467Z,11.30
2019-02-17T18:09:42.040Z,11.17
2019-02-17T18:12:10.636Z,11.14
2019-02-17T18:14:39.219Z,11.14
2019-02-17T18:17:07.864Z,11.12
2019-02-17T18:19:36.401Z,11.10
2019-02-17T18:22:05.018Z,11.13
2019-02-17T18:24:33.425Z,11.17
2019-02-17T18:27:02.060Z,11.19
2019-02-17T18:29:30.643Z,11.29
2019-02-17T18:31:59.227Z,11.39
2019-02-17T18:34:27.933Z,11.48
2019-02-17T18:36:56.429Z,11.61
2019-02-17T18:39:25.127Z,11.82
2019-02-17T18:41:53.735Z,12.07
2019-02-17T18:44:22.291Z,12.12
2019-02-17T18:46:50.900Z,12.28
2019-02-17T18:49:21.880Z,12.38
2019-02-17T18:51:50.504Z,12.52
2019-02-17T18:54:19.293Z,12.60
2019-02-17T18:56:48.021Z,12.67
2019-02-17T18:59:16.754Z,12.67
2019-02-17T19:01:45.363Z,12.67
2019-02-17T19:04:14.069Z,12.70
2019-02-17T19:06:42.660Z,12.76
2019-02-17T19:09:11.167Z,12.82
2019-02-17T19:11:39.807Z,12.83
2019-02-17T19:14:08.492Z,12.79
2019-02-17T19:16:37.123Z,12.78
2019-02-17T19:19:06.503Z,12.74
2019-02-17T19:21:35.058Z,12.71
2019-02-17T19:24:03.699Z,12.67
2019-02-17T19:26:32.298Z,12.67
2019-02-17T19:29:00.838Z,12.73
2019-02-17T19:31:29.335Z,12.58
2019-02-17T19:33:57.981Z,12.54
2019-02-17T19:36:26.658Z,12.53
2019-02-17T19:38:55.380Z,12.50
2019-02-17T19:41:23.996Z,12.44
2019-02-17T19:43:52.599Z,12.42
2019-02-17T19:46:21.283Z,12.43
2019-02-17T19:48:50.734Z,12.47
2019-02-17T19:51:19.321Z,12.51
2019-02-17T19:53:47.980Z,12.54
2019-02-17T19:56:16.634Z,12.50
2019-02-17T19:58:45.289Z,12.52
2019-02-17T20:01:13.909Z,12.49
2019-02-17T20:03:44.194Z,12.47
2019-02-17T20:06:14.387Z,12.44
2019-02-17T20:08:42.954Z,12.38
2019-02-17T20:11:11.544Z,12.42
2019-02-17T20:13:40.166Z,12.36
2019-02-17T20:16:08.763Z,12.29
2019-02-17T20:18:37.414Z,12.27
2019-02-17T20:21:06.035Z,12.22
2019-02-17T20:23:34.606Z,12.21
2019-02-17T20:26:03.297Z,12.20
2019-02-17T20:28:42.673Z,12.17
2019-02-17T20:31:02.247Z,12.18
2019-02-17T20:33:30.732Z,12.17
2019-02-17T20:36:02.787Z,12.14
2019-02-17T20:38:29.609Z,12.08
2019-02-17T20:40:58.250Z,12.01
2019-02-17T20:43:26.879Z,12.01
2019-02-17T20:45:55.545Z,11.97
2019-02-17T20:48:25.102Z,11.92
2019-02-17T20:50:53.780Z,11.93
2019-02-17T20:53:22.411Z,11.92
2019-02-17T20:55:50.981Z,11.82
2019-02-17T20:58:19.589Z,11.80
2019-02-17T21:00:48.215Z,11.76
2019-02-17T21:03:16.812Z,11.67
2019-02-17T21:05:45.456Z,11.63
2019-02-17T21:08:14.108Z,11.66
2019-02-17T21:10:42.793Z,11.61
2019-02-17T21:13:11.438Z,11.55
2019-02-17T21:15:40.062Z,11.45
2019-02-17T21:18:08.734Z,11.38
2019-02-17T21:20:38.031Z,11.35
2019-02-17T21:23:06.639Z,11.22
2019-02-17T21:25:35.275Z,11.13
2019-02-17T21:28:03.807Z,11.08
2019-02-17T21:30:32.680Z,11.05
2019-02-17T21:33:01.437Z,11.07
2019-02-17T21:35:30.050Z,11.00
2019-02-17T21:37:58.730Z,10.75
2019-02-17T21:40:27.410Z,10.55
2019-02-17T21:42:56.214Z,10.45
2019-02-17T21:45:24.749Z,10.35
2019-02-17T21:47:53.397Z,10.15
2019-02-17T21:50:22.872Z,9.98
2019-02-17T21:52:51.458Z,9.89
2019-02-17T21:55:20.123Z,9.85
2019-02-17T21:57:48.693Z,9.76
2019-02-17T22:00:20.462Z,9.73
2019-02-17T22:02:49.239Z,9.71
2019-02-17T22:05:17.862Z,9.67
2019-02-17T22:07:46.514Z,9.64
2019-02-17T22:10:16.645Z,9.60
2019-02-17T22:12:45.173Z,9.51
2019-02-17T22:15:21.853Z,9.42
2019-02-17T22:17:50.383Z,9.40
2019-02-17T22:20:19.104Z,9.37
2019-02-17T22:22:47.694Z,9.34
2019-02-17T22:25:16.516Z,9.30
2019-02-17T22:27:45.187Z,9.23
2019-02-17T22:30:14.812Z,9.22
2019-02-17T22:32:43.448Z,9.14
2019-02-17T22:35:13.260Z,9.09
2019-02-17T22:37:41.849Z,9.08
2019-02-17T22:40:12.733Z,9.03
2019-02-17T22:42:41.347Z,8.94
2019-02-17T22:45:11.354Z,8.90
2019-02-17T22:47:39.960Z,8.89
2019-02-17T22:50:10.540Z,8.79
2019-02-17T22:52:39.174Z,8.66
2019-02-17T22:55:12.730Z,8.53
2019-02-17T22:57:41.336Z,8.54
2019-02-17T23:00:18.590Z,8.50
2019-02-17T23:02:47.304Z,8.40
2019-02-17T23:05:15.908Z,8.32
2019-02-17T23:07:44.486Z,8.29
2019-02-17T23:10:13.090Z,8.20
2019-02-17T23:12:41.661Z,8.14
2019-02-17T23:15:10.286Z,8.06
2019-02-17T23:17:39.102Z,8.04
2019-02-17T23:20:08.494Z,7.91
2019-02-17T23:22:37.483Z,7.75
2019-02-17T23:25:09.091Z,7.61
2019-02-17T23:27:37.666Z,7.67
2019-02-17T23:30:09.267Z,7.75
2019-02-17T23:32:37.869Z,7.72
2019-02-17T23:35:06.743Z,7.71
2019-02-17T23:37:35.706Z,7.70
2019-02-17T23:40:09.609Z,7.61
2019-02-17T23:42:38.188Z,7.57
2019-02-17T23:45:09.063Z,7.53
2019-02-17T23:47:37.681Z,7.45
2019-02-17T23:50:08.599Z,7.26
2019-02-17T23:52:37.186Z,7.25
2019-02-17T23:55:06.400Z,7.30
2019-02-17T23:57:35.025Z,7.22
